sensor_id;sensor_type;location;lat;lon;timestamp;pressure;altitude;pressure_sealevel;temperature;humidity
5679;BME280;2862;52.560;13.566;2023-05-16T00:01:53;100005.44;;;14.34;89.21
5679;BME280;2862;52.560;13.566;2023-05-16T00:11:56;100011.28;;;14.38;89.41
5679;BME280;2862;52.560;13.566;2023-05-16T00:22:01;100010.59;;;14.44;89.29
5679;BME280;2862;52.560;13.566;2023-05-16T00:32:06;100017.19;;;14.57;87.85
5679;BME280;2862;52.560;13.566;2023-05-16T00:42:11;100020.72;;;14.42;88.79
5679;BME280;2862;52.560;13.566;2023-05-16T00:52:14;100023.38;;;14.33;89.09
5679;BME280;2862;52.560;13.566;2023-05-16T01:02:20;100047.59;;;14.25;89.09
5679;BME280;2862;52.560;13.566;2023-05-16T01:12:29;100052.28;;;14.15;90.39
5679;BME280;2862;52.560;13.566;2023-05-16T01:22:45;100063.38;;;13.96;92.62
5679;BME280;2862;52.560;13.566;2023-05-16T01:32:51;100064.03;;;13.90;92.78
5679;BME280;2862;52.560;13.566;2023-05-16T01:42:54;100079.47;;;13.79;95.24
5679;BME280;2862;52.560;13.566;2023-05-16T01:53:05;100091.88;;;13.72;95.87
5679;BME280;2862;52.560;13.566;2023-05-16T02:03:10;100108.13;;;13.63;96.77
5679;BME280;2862;52.560;13.566;2023-05-16T02:13:15;100119.22;;;13.60;96.77
5679;BME280;2862;52.560;13.566;2023-05-16T02:23:18;100128.75;;;13.54;96.81
5679;BME280;2862;52.560;13.566;2023-05-16T02:33:23;100147.69;;;13.44;95.65
5679;BME280;2862;52.560;13.566;2023-05-16T02:43:28;100165.75;;;13.34;94.65
5679;BME280;2862;52.560;13.566;2023-05-16T02:53:33;100176.47;;;13.08;93.95
5679;BME280;2862;52.560;13.566;2023-05-16T03:03:36;100187.13;;;13.00;92.84
5679;BME280;2862;52.560;13.566;2023-05-16T03:13:41;100198.34;;;12.77;92.26
5679;BME280;2862;52.560;13.566;2023-05-16T03:23:44;100206.88;;;12.91;91.30
5679;BME280;2862;52.560;13.566;2023-05-16T03:33:48;100223.50;;;12.76;91.94
5679;BME280;2862;52.560;13.566;2023-05-16T03:43:52;100228.81;;;12.68;92.52
5679;BME280;2862;52.560;13.566;2023-05-16T03:53:56;100233.00;;;12.71;91.95
5679;BME280;2862;52.560;13.566;2023-05-16T04:03:59;100228.31;;;12.73;92.69
5679;BME280;2862;52.560;13.566;2023-05-16T04:14:04;100242.06;;;12.70;91.87
5679;BME280;2862;52.560;13.566;2023-05-16T04:24:08;100254.47;;;12.89;91.31
5679;BME280;2862;52.560;13.566;2023-05-16T04:34:12;100283.34;;;12.77;91.44
5679;BME280;2862;52.560;13.566;2023-05-16T04:44:17;100289.50;;;12.69;91.40
5679;BME280;2862;52.560;13.566;2023-05-16T04:54:22;100313.63;;;12.69;91.42
5679;BME280;2862;52.560;13.566;2023-05-16T05:04:25;100334.91;;;12.53;91.17
5679;BME280;2862;52.560;13.566;2023-05-16T05:14:30;100353.06;;;12.32;90.95
5679;BME280;2862;52.560;13.566;2023-05-16T05:24:33;100366.81;;;12.56;89.53
5679;BME280;2862;52.560;13.566;2023-05-16T05:34:38;100378.69;;;12.44;90.01
5679;BME280;2862;52.560;13.566;2023-05-16T05:44:42;100399.03;;;12.46;90.22
5679;BME280;2862;52.560;13.566;2023-05-16T05:54:47;100407.88;;;13.29;85.71
5679;BME280;2862;52.560;13.566;2023-05-16T06:04:50;100414.56;;;13.87;81.67
5679;BME280;2862;52.560;13.566;2023-05-16T06:14:54;100430.44;;;13.98;79.80
5679;BME280;2862;52.560;13.566;2023-05-16T06:24:58;100431.41;;;14.15;77.72
5679;BME280;2862;52.560;13.566;2023-05-16T06:35:02;100431.72;;;13.68;79.12
5679;BME280;2862;52.560;13.566;2023-05-16T06:45:09;100447.47;;;13.45;79.86
5679;BME280;2862;52.560;13.566;2023-05-16T06:55:16;100455.91;;;13.68;78.63
5679;BME280;2862;52.560;13.566;2023-05-16T07:05:19;100471.25;;;13.76;79.46
5679;BME280;2862;52.560;13.566;2023-05-16T07:15:23;100475.28;;;13.54;78.88
5679;BME280;2862;52.560;13.566;2023-05-16T07:25:26;100483.84;;;13.75;78.12
5679;BME280;2862;52.560;13.566;2023-05-16T07:35:30;100499.59;;;13.88;76.74
5679;BME280;2862;52.560;13.566;2023-05-16T07:45:34;100495.50;;;14.02;77.40
5679;BME280;2862;52.560;13.566;2023-05-16T07:55:39;100508.06;;;14.19;76.19
5679;BME280;2862;52.560;13.566;2023-05-16T08:05:42;100508.56;;;14.41;74.31
5679;BME280;2862;52.560;13.566;2023-05-16T08:15:47;100530.00;;;14.50;70.39
5679;BME280;2862;52.560;13.566;2023-05-16T08:25:50;100541.16;;;14.38;72.82
5679;BME280;2862;52.560;13.566;2023-05-16T08:35:58;100556.94;;;14.15;72.54
5679;BME280;2862;52.560;13.566;2023-05-16T08:46:02;100562.09;;;14.08;71.70
5679;BME280;2862;52.560;13.566;2023-05-16T08:56:07;100563.56;;;13.85;72.28
5679;BME280;2862;52.560;13.566;2023-05-16T09:06:10;100555.81;;;14.17;70.51
5679;BME280;2862;52.560;13.566;2023-05-16T09:16:16;100561.31;;;14.16;69.68
5679;BME280;2862;52.560;13.566;2023-05-16T09:26:19;100573.28;;;14.21;69.82
5679;BME280;2862;52.560;13.566;2023-05-16T09:36:25;100579.78;;;14.28;70.43
5679;BME280;2862;52.560;13.566;2023-05-16T09:46:28;100597.41;;;14.67;66.83
5679;BME280;2862;52.560;13.566;2023-05-16T09:56:47;100601.03;;;14.40;67.04
5679;BME280;2862;52.560;13.566;2023-05-16T10:06:50;100607.66;;;14.45;66.87
5679;BME280;2862;52.560;13.566;2023-05-16T10:16:56;100611.81;;;14.40;66.24
5679;BME280;2862;52.560;13.566;2023-05-16T10:26:59;100598.78;;;14.97;64.77
5679;BME280;2862;52.560;13.566;2023-05-16T10:37:05;100603.09;;;15.16;63.60
5679;BME280;2862;52.560;13.566;2023-05-16T10:47:08;100626.75;;;15.04;64.31
5679;BME280;2862;52.560;13.566;2023-05-16T10:57:16;100628.50;;;14.87;65.86
5679;BME280;2862;52.560;13.566;2023-05-16T11:07:22;100633.84;;;14.61;68.11
5679;BME280;2862;52.560;13.566;2023-05-16T11:17:27;100664.38;;;14.34;68.76
5679;BME280;2862;52.560;13.566;2023-05-16T11:27:31;100654.38;;;14.62;67.61
5679;BME280;2862;52.560;13.566;2023-05-16T11:37:36;100652.53;;;15.40;63.40
5679;BME280;2862;52.560;13.566;2023-05-16T11:47:41;100650.75;;;15.83;61.36
5679;BME280;2862;52.560;13.566;2023-05-16T11:57:46;100663.59;;;15.29;61.90
5679;BME280;2862;52.560;13.566;2023-05-16T12:07:49;100671.75;;;15.11;62.22
5679;BME280;2862;52.560;13.566;2023-05-16T12:17:53;100674.41;;;15.03;62.22
5679;BME280;2862;52.560;13.566;2023-05-16T12:27:59;100680.53;;;15.48;58.62
5679;BME280;2862;52.560;13.566;2023-05-16T12:38:04;100676.50;;;16.44;56.03
5679;BME280;2862;52.560;13.566;2023-05-16T12:48:11;100676.63;;;16.27;54.12
5679;BME280;2862;52.560;13.566;2023-05-16T12:58:16;100679.81;;;16.14;55.34
5679;BME280;2862;52.560;13.566;2023-05-16T13:08:18;100675.69;;;15.93;54.88
5679;BME280;2862;52.560;13.566;2023-05-16T13:18:23;100676.44;;;16.12;52.93
5679;BME280;2862;52.560;13.566;2023-05-16T13:28:26;100655.44;;;16.64;52.41
5679;BME280;2862;52.560;13.566;2023-05-16T13:38:31;100657.84;;;17.47;48.96
5679;BME280;2862;52.560;13.566;2023-05-16T13:48:33;100669.44;;;17.64;47.42
5679;BME280;2862;52.560;13.566;2023-05-16T13:58:38;100672.38;;;17.46;47.69
5679;BME280;2862;52.560;13.566;2023-05-16T14:08:46;100667.84;;;17.86;44.90
5679;BME280;2862;52.560;13.566;2023-05-16T14:18:50;100676.13;;;17.29;45.30
5679;BME280;2862;52.560;13.566;2023-05-16T14:28:53;100682.38;;;17.38;45.61
5679;BME280;2862;52.560;13.566;2023-05-16T14:38:59;100681.00;;;17.50;44.48
5679;BME280;2862;52.560;13.566;2023-05-16T14:49:01;100665.47;;;17.36;41.41
5679;BME280;2862;52.560;13.566;2023-05-16T14:59:06;100669.69;;;17.46;40.34
5679;BME280;2862;52.560;13.566;2023-05-16T15:09:09;100670.75;;;17.76;39.63
5679;BME280;2862;52.560;13.566;2023-05-16T15:19:14;100669.31;;;17.58;39.89
5679;BME280;2862;52.560;13.566;2023-05-16T15:29:17;100679.41;;;17.64;39.50
5679;BME280;2862;52.560;13.566;2023-05-16T15:39:21;100683.03;;;17.95;39.34
5679;BME280;2862;52.560;13.566;2023-05-16T15:49:26;100682.13;;;17.64;37.56
5679;BME280;2862;52.560;13.566;2023-05-16T15:59:30;100672.28;;;17.79;35.79
5679;BME280;2862;52.560;13.566;2023-05-16T16:09:33;100678.56;;;17.63;39.81
5679;BME280;2862;52.560;13.566;2023-05-16T16:19:38;100676.44;;;17.50;35.86
5679;BME280;2862;52.560;13.566;2023-05-16T16:29:41;100681.50;;;17.37;36.27
5679;BME280;2862;52.560;13.566;2023-05-16T16:39:45;100671.06;;;17.26;37.01
5679;BME280;2862;52.560;13.566;2023-05-16T16:49:48;100660.56;;;17.39;35.52
5679;BME280;2862;52.560;13.566;2023-05-16T16:59:52;100667.25;;;16.96;35.24
5679;BME280;2862;52.560;13.566;2023-05-16T17:09:55;100678.06;;;16.80;33.84
5679;BME280;2862;52.560;13.566;2023-05-16T17:19:59;100678.69;;;16.49;35.19
5679;BME280;2862;52.560;13.566;2023-05-16T17:30:07;100677.16;;;16.30;35.40
5679;BME280;2862;52.560;13.566;2023-05-16T17:40:12;100702.19;;;15.98;35.57
5679;BME280;2862;52.560;13.566;2023-05-16T17:50:18;100721.53;;;15.85;36.91
5679;BME280;2862;52.560;13.566;2023-05-16T18:00:24;100725.09;;;15.60;38.56
5679;BME280;2862;52.560;13.566;2023-05-16T18:10:26;100743.78;;;15.35;39.23
5679;BME280;2862;52.560;13.566;2023-05-16T18:20:33;100770.25;;;14.96;39.79
5679;BME280;2862;52.560;13.566;2023-05-16T18:30:35;100799.09;;;14.68;41.81
5679;BME280;2862;52.560;13.566;2023-05-16T18:40:40;100793.31;;;14.35;42.39
5679;BME280;2862;52.560;13.566;2023-05-16T18:50:48;100805.94;;;13.98;43.07
5679;BME280;2862;52.560;13.566;2023-05-16T19:00:52;100822.56;;;13.84;44.09
5679;BME280;2862;52.560;13.566;2023-05-16T19:10:56;100841.47;;;13.54;45.12
5679;BME280;2862;52.560;13.566;2023-05-16T19:21:00;100876.38;;;13.35;45.92
5679;BME280;2862;52.560;13.566;2023-05-16T19:31:03;100872.53;;;13.09;45.60
5679;BME280;2862;52.560;13.566;2023-05-16T19:41:08;100892.19;;;13.09;45.85
5679;BME280;2862;52.560;13.566;2023-05-16T19:51:11;100894.53;;;12.83;45.94
5679;BME280;2862;52.560;13.566;2023-05-16T20:01:15;100893.78;;;12.62;46.70
5679;BME280;2862;52.560;13.566;2023-05-16T20:11:17;100904.28;;;12.44;47.93
5679;BME280;2862;52.560;13.566;2023-05-16T20:21:22;100915.94;;;12.23;48.42
5679;BME280;2862;52.560;13.566;2023-05-16T20:31:25;100921.38;;;12.12;48.88
5679;BME280;2862;52.560;13.566;2023-05-16T20:41:45;100930.78;;;11.86;50.22
5679;BME280;2862;52.560;13.566;2023-05-16T20:51:48;100931.88;;;11.62;51.70
5679;BME280;2862;52.560;13.566;2023-05-16T21:01:53;100931.59;;;11.44;51.83
5679;BME280;2862;52.560;13.566;2023-05-16T21:11:58;100949.34;;;11.46;51.33
5679;BME280;2862;52.560;13.566;2023-05-16T21:22:02;100964.97;;;11.29;51.88
5679;BME280;2862;52.560;13.566;2023-05-16T21:32:07;100956.59;;;11.23;51.88
5679;BME280;2862;52.560;13.566;2023-05-16T21:42:22;100951.69;;;11.07;52.01
5679;BME280;2862;52.560;13.566;2023-05-16T21:52:25;100956.94;;;10.97;52.83
5679;BME280;2862;52.560;13.566;2023-05-16T22:02:29;100958.84;;;10.95;52.58
5679;BME280;2862;52.560;13.566;2023-05-16T22:12:32;100963.50;;;10.82;52.56
5679;BME280;2862;52.560;13.566;2023-05-16T22:22:36;100966.66;;;10.76;53.13
5679;BME280;2862;52.560;13.566;2023-05-16T22:32:40;100960.13;;;10.69;53.67
5679;BME280;2862;52.560;13.566;2023-05-16T22:42:44;100972.16;;;10.63;54.47
5679;BME280;2862;52.560;13.566;2023-05-16T22:52:47;100982.00;;;10.51;55.40
5679;BME280;2862;52.560;13.566;2023-05-16T23:02:53;100984.31;;;10.56;56.29
5679;BME280;2862;52.560;13.566;2023-05-16T23:12:56;100983.34;;;10.46;56.56
5679;BME280;2862;52.560;13.566;2023-05-16T23:23:01;100988.78;;;10.33;57.49
5679;BME280;2862;52.560;13.566;2023-05-16T23:33:04;100995.34;;;10.29;57.79
5679;BME280;2862;52.560;13.566;2023-05-16T23:43:09;101002.88;;;10.24;58.50
5679;BME280;2862;52.560;13.566;2023-05-16T23:53:12;100993.94;;;10.12;59.46
